This is the latest recevied weather packets stored in our database for station/object BMCB-29. If no packets are shown the sender has not sent any weather packets the latest 10 day(s).
| Time | Temp. | Humidity | Pressure | Rain* | Wind** | Luminosity | Snow |
|---|---|---|---|---|---|---|---|
| 1777641047 | 22.22° C | 27% | 1024.2 hPa | 0 mm | - | 762 W/m² | - |
| 1777636845 | 21.67° C | 30% | 1024.8 hPa | 0 mm | - | 824 W/m² | - |
| 1777635045 | 21.67° C | 31% | 1024.9 hPa | 0 mm | - | 830 W/m² | - |
| 1777631445 | 20.56° C | 29% | 1025.4 hPa | 0 mm | - | 804 W/m² | - |
| 1777628447 | 18.89° C | 30% | 1025.8 hPa | 0 mm | - | 748 W/m² | - |
| 1777627244 | 18.33° C | 30% | 1026 hPa | 0 mm | - | 716 W/m² | - |
| 1777619444 | 12.78° C | 40% | 1026.8 hPa | 0 mm | - | 36 W/m² | - |
| 1777611643 | 5.56° C | 58% | 1026.4 hPa | 0 mm | - | 14 W/m² | - |
| 1777606843 | 4.44° C | 63% | 1026.3 hPa | 0 mm | - | 0 W/m² | - |
| 1777602044 | 5° C | 61% | 1026.5 hPa | 0 mm | - | 0 W/m² | - |
| 1777601443 | 4.44° C | 64% | 1026.5 hPa | 0 mm | - | 0 W/m² | - |
| 1777597843 | 5.56° C | 58% | 1026.7 hPa | 0 mm | - | 0 W/m² | - |
| 1777594842 | 5.56° C | 59% | 1026.9 hPa | 0 mm | - | 0 W/m² | - |
| 1777593045 | 5.56° C | 60% | 1026.8 hPa | 0 mm | - | 0 W/m² | - |
| 1777592447 | 5.56° C | 58% | 1026.8 hPa | 0 mm | - | 0 W/m² | - |
| 1777590044 | 6.67° C | 54% | 1026.8 hPa | 0 mm | - | 0 W/m² | - |
| 1777584045 | 10° C | 41% | 1026.6 hPa | 0 mm | - | 0 W/m² | - |
| 1777580446 | 13.33° C | 31% | 1026.2 hPa | 0 mm | - | 0 W/m² | - |
| 1777579247 | 13.33° C | 30% | 1026.1 hPa | 0 mm | - | 0 W/m² | - |
| 1777570248 | 18.33° C | 24% | 1024.7 hPa | 0 mm | - | 118 W/m² | - |
| 1777569047 | 18.89° C | 24% | 1024.5 hPa | 0 mm | - | 146 W/m² | - |
| 1777568446 | 18.89° C | 24% | 1024.5 hPa | 0 mm | - | 188 W/m² | - |
| 1777567845 | 19.44° C | 23% | 1024.5 hPa | 0 mm | - | 224 W/m² | - |
| 1777566047 | 20° C | 22% | 1024.4 hPa | 0 mm | - | 312 W/m² | - |
| 1777563645 | 20.56° C | 21% | 1024.3 hPa | 0 mm | - | 428 W/m² | - |
* Rain latest hour (hover to see other rain measurements)
** Current wind speed in m/s (hover to see current wind gust speed)